Latest Coastal Weather Observations for Frederick Reef

IDQ60701

Issued at 1:01 am EST Monday 6 July 2015 (issued every 10 minutes, with the page automatically refreshed every 10 minutes)

About coastal observations | Map of coastal stations | Coastal observations for QLD | Marine services | Other Formats
Station Details ID: 200701 Name: FREDERICK REEF Lat: -20.94 Lon: 154.40 Height: 4.9 m
Data from the previous 72 hours. | See also: Recent months for locations in Queensland
Date/Time
EST
Temp

°C
Wind Pressure Rain
since 9am
mm
Weather Cloud Vis
km
Sea
Height
m
Swell
Dir
 
Speed
knots
Gust
knots
hPa Trend Height
m
Period
s
Dir
06/01:00am 21.9 E 16 19 1017.6 - - - - - - - - -
06/12:30am 22.1 ESE 17 20 1017.7 - - - - - - - - -
06/12:00am 21.9 ESE 18 21 1017.6 - - - - - - - - -
 
Date/Time
EST
Temp

°C
Wind Pressure Rain
since 9am
mm
Weather Cloud Vis
km
Sea
Height
m
Swell
Dir
 
Speed
knots
Gust
knots
hPa Trend Height
m
Period
s
Dir
05/11:30pm 21.8 E 18 22 1017.6 - - - - - - - - -
05/11:00pm 22.2 E 19 22 1017.7 - - - - - - - - -
05/10:30pm 21.9 E 20 24 1017.9 - - - - - - - - -
05/10:00pm 21.8 E 20 23 1018.1 - - - - - - - - -
05/09:30pm 22.2 E 19 23 1018.3 - - - - - - - - -
05/09:00pm 22.2 ESE 18 21 1018.4 - - - - - - - - -
05/08:30pm 22.3 ESE 18 21 1018.5 - - - - - - - - -
05/08:00pm 22.2 ESE 17 20 1018.6 - - - - - - - - -
05/07:30pm 22.3 E 17 20 1018.7 - - - - - - - - -
05/07:00pm 21.8 SE 19 - 1018.5 - - - - - - - - -
05/06:30pm 22.3 SE 20 23 1018.1 - - - - - - - - -
05/06:00pm 21.7 ESE 21 30 1018.0 - - - - - - - - -
05/05:30pm 22.6 ESE 19 23 1017.7 - - - - - - - - -
05/05:00pm 22.7 ESE 18 20 1017.6 - - - - - - - - -
05/04:30pm 22.8 ESE 19 23 1017.4 - - - - - - - - -
05/04:00pm 22.6 ESE 19 21 1017.2 - - - - - - - - -
05/03:30pm 22.8 SE 17 20 1017.2 - - - - - - - - -
05/03:00pm 22.7 SE 17 19 1017.2 - - - - - - - - -
05/02:30pm 22.4 ESE 18 21 1016.9 - - - - - - - - -
05/02:00pm 22.6 ESE 14 16 1017.0 - - - - - - - - -
05/01:30pm 21.8 E 18 22 1017.3 - - - - - - - - -
05/01:00pm 21.7 E 16 18 1017.4 - - - - - - - - -
05/12:30pm 21.8 ESE 16 18 1017.7 - - - - - - - - -
05/12:00pm 21.9 ESE 16 19 1018.1 - - - - - - - - -
05/11:30am 21.3 ESE 18 20 1018.6 - - - - - - - - -
05/11:10am 20.3 SE 16 26 1018.9 - - - - - - - - -
05/11:00am 20.8 ESE 24 28 1018.9 - - - - - - - - -
05/10:54am 21.6 ESE 16 28 1018.8 - - - - - - - - -
05/10:30am 20.7 E 15 17 1019.3 - - - - - - - - -
05/10:00am 21.0 ENE 18 23 1019.3 - - - - - - - - -
05/09:30am 20.8 E 23 26 1019.2 - - - - - - - - -
05/09:16am 21.6 E 19 23 1019.2 - - - - - - - - -
05/09:00am 21.4 E 12 13 1019.3 - - - - - - - - -
05/08:30am 20.3 E 16 20 1019.3 - - - - - - - - -
05/08:27am 20.6 E 18 24 1019.3 - - - - - - - - -
05/08:21am 20.6 SE 23 30 1019.3 - - - - - - - - -
05/08:00am 21.2 E 23 26 1018.8 - - - - - - - - -
05/07:30am 21.6 E 20 22 1018.5 - - - - - - - - -
05/07:13am 20.2 E 23 24 1018.4 - - - - - - - - -
05/07:00am 19.8 S 11 17 1018.4 - - - - - - - - -
05/06:30am 20.4 SSE 16 19 1018.1 - - - - - - - - -
05/06:17am 20.7 SE 16 23 1018.1 - - - - - - - - -
05/06:04am 20.4 E 21 29 1017.8 - - - - - - - - -
05/06:02am 20.7 SSE 19 29 1017.9 - - - - - - - - -
05/06:00am 20.8 E 21 21 1017.8 - - - - - - - - -
05/05:43am 21.3 SSE 22 24 1017.7 - - - - - - - - -
05/05:30am 20.9 E 21 23 1017.4 - - - - - - - - -
05/05:21am 20.3 E 20 26 1017.4 - - - - - - - - -
05/05:18am 20.4 SE 16 26 1017.3 - - - - - - - - -
05/05:00am 20.0 ESE 9 10 1017.4 - - - - - - - - -
05/04:30am 20.0 ESE 18 26 1017.0 - - - - - - - - -
05/04:00am 20.8 SE 17 21 1017.1 - - - - - - - - -
05/03:30am 20.8 SSE 20 24 1017.0 - - - - - - - - -
05/03:16am 21.1 SE 17 28 1016.8 - - - - - - - - -
05/03:00am 20.7 ESE 16 26 1017.1 - - - - - - - - -
05/02:38am 20.9 ESE 27 30 1017.1 - - - - - - - - -
05/02:36am 21.1 SE 17 30 1017.3 - - - - - - - - -
05/02:30am 20.1 SE 20 28 1017.3 - - - - - - - - -
05/02:00am 21.8 ESE 19 25 1017.2 - - - - - - - - -
05/01:30am 22.3 ESE 22 27 1017.5 - - - - - - - - -
05/01:00am 22.0 ESE 23 27 1017.8 - - - - - - - - -
05/12:30am 21.8 E 19 24 1018.2 - - - - - - - - -
05/12:00am 22.2 ESE 20 23 1018.4 - - - - - - - - -
 
Date/Time
EST
Temp

°C
Wind Pressure Rain
since 9am
mm
Weather Cloud Vis
km
Sea
Height
m
Swell
Dir
 
Speed
knots
Gust
knots
hPa Trend Height
m
Period
s
Dir
04/11:30pm 22.1 ESE 18 23 1018.7 - - - - - - - - -
04/11:00pm 21.9 ESE 18 23 1018.8 - - - - - - - - -
04/10:30pm 21.9 ESE 23 26 1018.8 - - - - - - - - -
04/10:00pm 21.2 ESE 15 21 1019.0 - - - - - - - - -
04/09:55pm 20.7 ESE 21 32 1019.1 - - - - - - - - -
04/09:30pm 21.9 ESE 23 27 1018.9 - - - - - - - - -
04/09:00pm 21.8 ESE 24 30 1019.0 - - - - - - - - -
04/08:30pm 21.9 E 24 27 1018.7 - - - - - - - - -
04/08:26pm 22.2 E 25 27 1018.6 - - - - - - - - -
04/08:00pm 22.2 ESE 21 24 1018.5 - - - - - - - - -
04/07:30pm 22.2 ESE 20 25 1018.4 - - - - - - - - -
04/07:00pm 21.8 SE 20 24 1018.3 - - - - - - - - -
04/06:30pm 21.6 ESE 25 28 1017.9 - - - - - - - - -
04/06:01pm 21.8 ESE 21 31 1017.6 - - - - - - - - -
04/06:00pm 21.9 ESE 18 31 1017.6 - - - - - - - - -
04/05:38pm 21.9 SE 18 28 1017.4 - - - - - - - - -
04/05:30pm 21.8 SE 22 28 1017.2 - - - - - - - - -
04/05:00pm 22.0 SE 20 27 1016.9 - - - - - - - - -
04/04:30pm 22.2 ESE 21 24 1016.6 - - - - - - - - -
04/04:00pm 21.9 SE 23 27 1016.5 - - - - - - - - -
04/03:30pm 22.0 ESE 20 23 1016.4 - - - - - - - - -
04/03:00pm 21.4 SE 20 27 1016.6 - - - - - - - - -
04/02:30pm 22.1 SE 21 26 1016.6 - - - - - - - - -
04/02:00pm 22.1 SE 23 27 1016.6 - - - - - - - - -
04/01:30pm 21.9 ESE 25 29 1016.5 - - - - - - - - -
04/01:00pm 21.8 ESE 20 26 1016.7 - - - - - - - - -
04/12:46pm 21.6 E 25 27 1016.8 - - - - - - - - -
04/12:30pm 21.0 SE 23 29 1017.2 - - - - - - - - -
04/12:20pm 21.5 SE 22 28 1017.3 - - - - - - - - -
04/12:02pm 21.6 ESE 18 28 1017.4 - - - - - - - - -
04/12:00pm 21.5 ESE 20 24 1017.4 - - - - - - - - -
04/11:49am 20.9 E 25 28 1017.7 - - - - - - - - -
04/11:30am 21.4 SE 25 29 1017.9 - - - - - - - - -
04/11:00am 21.7 ESE 24 27 1018.2 - - - - - - - - -
04/10:30am 20.4 ESE 26 30 1018.4 - - - - - - - - -
04/10:03am 20.8 ESE 25 27 1018.4 - - - - - - - - -
04/10:00am 20.6 E 24 25 1018.5 - - - - - - - - -
04/09:57am 21.7 SSE 20 23 1018.5 - - - - - - - - -
04/09:42am 21.0 ESE 21 29 1018.8 - - - - - - - - -
04/09:30am 21.6 SE 22 27 1018.8 - - - - - - - - -
04/09:02am 21.0 SE 20 31 1018.6 - - - - - - - - -
04/09:00am 21.1 SE 22 26 1018.8 - - - - - - - - -
04/08:30am 21.3 SE 22 27 1018.5 - - - - - - - - -
04/08:27am 21.9 SE 21 24 1018.5 - - - - - - - - -
04/08:10am 21.2 E 25 29 1018.3 - - - - - - - - -
04/08:07am 21.4 SE 18 29 1018.4 - - - - - - - - -
04/08:00am 21.2 SE 20 29 1018.5 - - - - - - - - -
04/07:30am 21.6 SE 20 24 1018.0 - - - - - - - - -
04/07:00am 21.1 SE 26 32 1017.8 - - - - - - - - -
04/06:30am 21.7 SE 24 28 1017.3 - - - - - - - - -
04/06:00am 21.8 SE 21 30 1017.1 - - - - - - - - -
04/05:30am 21.5 SE 21 29 1016.8 - - - - - - - - -
04/05:00am 21.8 SE 25 29 1016.4 - - - - - - - - -
04/04:30am 21.9 SE 25 30 1016.1 - - - - - - - - -
04/04:00am 22.2 SE 22 24 1016.3 - - - - - - - - -
04/03:30am 21.8 SSE 24 30 1016.4 - - - - - - - - -
04/03:00am 22.0 SE 21 25 1016.7 - - - - - - - - -
04/02:30am 22.1 SE 24 28 1016.8 - - - - - - - - -
04/02:00am 22.1 SE 26 30 1017.0 - - - - - - - - -
04/01:30am 22.3 SE 26 29 1017.0 - - - - - - - - -
04/01:00am 22.5 SE 26 28 1017.2 - - - - - - - - -
04/12:30am 22.4 SE 24 28 1017.5 - - - - - - - - -
04/12:00am 22.8 SE 21 24 1017.7 - - - - - - - - -
 
Date/Time
EST
Temp

°C
Wind Pressure Rain
since 9am
mm
Weather Cloud Vis
km
Sea
Height
m
Swell
Dir
 
Speed
knots
Gust
knots
hPa Trend Height
m
Period
s
Dir
03/11:30pm 22.3 SE 20 24 1017.8 - - - - - - - - -
03/11:00pm 22.2 SE 19 21 1018.1 - - - - - - - - -
03/10:30pm 22.1 SE 19 23 1018.5 - - - - - - - - -
03/10:00pm 22.1 SE 19 22 1018.8 - - - - - - - - -
03/09:30pm 22.2 SE 17 21 1018.8 - - - - - - - - -
03/09:00pm 22.1 SE 21 25 1018.8 - - - - - - - - -
03/08:30pm 22.1 SE 23 28 1018.5 - - - - - - - - -
03/08:00pm 22.0 SE 22 25 1018.3 - - - - - - - - -
03/07:30pm 21.9 SSE 21 23 1018.1 - - - - - - - - -
03/07:00pm 21.9 SSE 21 25 1017.7 - - - - - - - - -
03/06:30pm 21.8 SSE 20 23 1017.4 - - - - - - - - -
03/06:00pm 21.8 SSE 21 25 1017.1 - - - - - - - - -
03/05:30pm 21.6 SSE 21 24 1016.9 - - - - - - - - -
03/05:00pm 22.1 SSE 19 22 1016.9 - - - - - - - - -
03/04:30pm 21.9 SSE 19 23 1016.7 - - - - - - - - -
03/04:00pm 21.8 SSE 19 22 1016.3 - - - - - - - - -
03/03:30pm 21.7 SSE 19 23 1015.8 - - - - - - - - -
03/03:00pm 21.8 SSE 18 22 1015.7 - - - - - - - - -
03/02:30pm 21.7 SSE 18 22 1015.5 - - - - - - - - -
03/02:00pm 22.3 S 14 16 1015.7 - - - - - - - - -
03/01:30pm 22.1 S 14 17 1016.1 - - - - - - - - -
03/01:00pm 22.3 S 15 18 1015.9 - - - - - - - - -
03/12:30pm 22.1 S 15 18 1016.2 - - - - - - - - -
03/12:00pm 21.9 S 16 18 1016.4 - - - - - - - - -
03/11:30am 22.0 S 16 21 1016.9 - - - - - - - - -
03/11:00am 22.1 S 15 18 1017.2 - - - - - - - - -
03/10:30am 21.9 S 16 19 1017.5 - - - - - - - - -
03/10:00am 21.9 S 16 19 1017.6 - - - - - - - - -
03/09:30am 21.9 S 17 19 1017.7 - - - - - - - - -
03/09:00am 22.1 S 16 19 1017.7 - - - - - - - - -
03/08:30am 21.9 S 18 21 1017.4 - - - - - - - - -
03/08:00am 21.9 S 17 21 1017.2 - - - - - - - - -
03/07:30am 22.1 S 18 20 1016.8 - - - - - - - - -
03/07:00am 22.0 S 17 21 1016.7 - - - - - - - - -
03/06:30am 22.1 S 17 19 1016.5 - - - - - - - - -
03/06:00am 21.9 S 17 20 1016.3 - - - - - - - - -
03/05:30am 22.0 S 18 21 1016.0 - - - - - - - - -
03/05:00am 22.1 S 18 23 1015.7 - - - - - - - - -
03/04:30am 22.1 SSE 16 20 1015.6 - - - - - - - - -
03/04:00am 22.2 S 16 19 1015.7 - - - - - - - - -
03/03:30am 22.0 S 15 17 1015.9 - - - - - - - - -
03/03:00am 22.2 S 15 17 1015.8 - - - - - - - - -
03/02:30am 22.3 S 15 17 1016.1 - - - - - - - - -
03/02:00am 22.2 S 15 17 1016.0 - - - - - - - - -
03/01:30am 22.2 S 14 16 1016.5 - - - - - - - - -

Other Formats:

Comma delimited format used in spreadsheet applications
http://www.bom.gov.au/fwo/IDQ60701/IDQ60701.94393.axf

JavaScript Object Notation format (JSON) in row-major order
http://www.bom.gov.au/fwo/IDQ60701/IDQ60701.94393.json